createdAt,value
2023-04-21T00:00:10.666Z,3.17
2023-04-21T00:02:42.385Z,2.55
2023-04-21T00:05:11.054Z,2.72
2023-04-21T00:07:39.484Z,3.10
2023-04-21T00:10:11.614Z,3.05
2023-04-21T00:12:39.411Z,3.13
2023-04-21T00:15:07.994Z,2.97
2023-04-21T00:17:35.688Z,3.78
2023-04-21T00:20:04.927Z,3.33
2023-04-21T00:22:32.218Z,3.42
2023-04-21T00:24:59.586Z,3.47
2023-04-21T00:27:26.901Z,3.45
2023-04-21T00:29:54.343Z,3.92
2023-04-21T00:32:21.607Z,3.83
2023-04-21T00:34:48.907Z,3.97
2023-04-21T00:37:16.255Z,4.10
2023-04-21T00:39:43.539Z,4.47
2023-04-21T00:42:11.114Z,3.63
2023-04-21T00:44:38.516Z,4.45
2023-04-21T00:47:06.060Z,3.97
2023-04-21T00:49:33.701Z,4.25
2023-04-21T00:52:01.465Z,4.30
2023-04-21T00:54:28.995Z,4.85
2023-04-21T00:56:58.565Z,4.72
2023-04-21T00:59:25.905Z,4.68
2023-04-21T01:01:53.471Z,4.53
2023-04-21T01:04:22.282Z,4.50
2023-04-21T01:06:49.932Z,4.63
2023-04-21T01:09:17.627Z,5.20
2023-04-21T01:12:19.174Z,4.85
2023-04-21T01:14:46.601Z,4.97
2023-04-21T01:17:13.942Z,4.45
2023-04-21T01:19:43.318Z,4.43
2023-04-21T01:22:13.091Z,4.80
2023-04-21T01:24:45.208Z,5.22
2023-04-21T01:27:20.167Z,5.07
2023-04-21T01:29:52.561Z,4.72
2023-04-21T01:32:26.011Z,5.15
2023-04-21T01:34:56.066Z,4.45
2023-04-21T01:37:30.009Z,4.30
2023-04-21T01:40:05.123Z,5.28
2023-04-21T01:42:38.265Z,4.30
2023-04-21T01:45:07.656Z,4.93
2023-04-21T01:47:35.022Z,5.30
2023-04-21T01:50:02.478Z,4.38
2023-04-21T01:52:29.750Z,4.88
2023-04-21T01:54:57.175Z,5.20
2023-04-21T01:57:24.586Z,5.38
2023-04-21T01:59:52.362Z,5.57
2023-04-21T02:02:19.757Z,5.20
2023-04-21T02:04:47.320Z,4.90
2023-04-21T02:07:14.620Z,4.93
2023-04-21T02:09:44.851Z,5.20
2023-04-21T02:12:12.486Z,4.65
2023-04-21T02:14:42.978Z,4.80
2023-04-21T02:17:10.340Z,4.82
2023-04-21T02:19:37.809Z,4.88
2023-04-21T02:22:06.917Z,4.75
2023-04-21T02:24:35.031Z,4.75
2023-04-21T02:27:03.068Z,4.63
2023-04-21T02:29:30.474Z,4.05
2023-04-21T02:32:03.311Z,4.20
2023-04-21T02:34:38.499Z,5.03
2023-04-21T02:37:06.484Z,4.72
2023-04-21T02:39:33.873Z,5.07
2023-04-21T02:42:01.995Z,4.50
2023-04-21T02:44:29.323Z,5.03
2023-04-21T02:46:56.731Z,4.80
2023-04-21T02:49:24.152Z,5.35
2023-04-21T02:51:51.356Z,5.25
2023-04-21T02:54:18.529Z,4.63
2023-04-21T02:56:46.181Z,4.97
2023-04-21T02:59:16.619Z,4.50
2023-04-21T03:01:43.943Z,5.50
2023-04-21T03:04:11.529Z,5.30
2023-04-21T03:06:38.730Z,5.30
2023-04-21T03:09:06.290Z,4.75
2023-04-21T03:11:33.470Z,4.97
2023-04-21T03:14:00.856Z,5.25
2023-04-21T03:16:28.276Z,6.25
2023-04-21T03:18:55.743Z,5.25
2023-04-21T03:21:22.957Z,5.25
2023-04-21T03:23:50.366Z,5.07
2023-04-21T03:26:17.612Z,5.32
2023-04-21T03:31:13.814Z,5.15
2023-04-21T03:33:41.345Z,5.65
2023-04-21T03:36:08.922Z,5.28
2023-04-21T03:38:36.593Z,6.40
2023-04-21T03:41:05.223Z,7.03
2023-04-21T03:43:32.443Z,5.70
2023-04-21T03:45:59.714Z,5.10
2023-04-21T03:48:29.339Z,5.18
2023-04-21T03:50:56.620Z,5.03
2023-04-21T03:53:23.899Z,5.10
2023-04-21T03:55:51.416Z,4.97
2023-04-21T03:58:18.725Z,4.63
2023-04-21T04:00:46.315Z,4.90
2023-04-21T04:03:13.814Z,4.88
2023-04-21T04:05:41.302Z,4.25
2023-04-21T04:08:08.607Z,4.70
2023-04-21T04:10:35.868Z,4.53
2023-04-21T04:13:04.278Z,4.20
2023-04-21T04:15:31.483Z,4.50
2023-04-21T04:17:59.083Z,3.95
2023-04-21T04:20:26.850Z,4.10
2023-04-21T04:22:54.068Z,4.00
2023-04-21T04:25:22.459Z,4.53
2023-04-21T04:27:50.221Z,3.95
2023-04-21T04:30:17.494Z,3.45
2023-04-21T04:32:44.828Z,3.58
2023-04-21T04:35:13.005Z,4.50
2023-04-21T04:37:41.208Z,5.18
2023-04-21T04:40:10.346Z,4.45
2023-04-21T04:42:39.586Z,4.53
2023-04-21T04:45:11.343Z,4.95
2023-04-21T04:47:39.008Z,5.43
2023-04-21T04:50:07.296Z,4.60
2023-04-21T04:52:40.693Z,4.70
2023-04-21T04:55:08.690Z,5.03
2023-04-21T04:57:36.114Z,4.80
2023-04-21T05:00:06.339Z,3.92
2023-04-21T05:02:33.798Z,4.22
2023-04-21T05:05:01.362Z,3.72
2023-04-21T05:07:28.829Z,3.90
2023-04-21T05:09:56.108Z,3.97
2023-04-21T05:12:23.393Z,3.92
2023-04-21T05:14:50.776Z,4.45
2023-04-21T05:17:17.976Z,4.15
2023-04-21T05:19:45.259Z,4.07
2023-04-21T05:22:12.395Z,4.30
2023-04-21T05:24:42.853Z,4.28
2023-04-21T05:27:10.633Z,4.25
2023-04-21T05:29:37.822Z,3.67
2023-04-21T05:32:05.715Z,3.85
2023-04-21T05:34:33.247Z,3.83
2023-04-21T05:37:00.484Z,3.75
2023-04-21T05:39:28.459Z,3.95
2023-04-21T05:41:57.458Z,4.43
2023-04-21T05:44:25.469Z,4.43
2023-04-21T05:46:52.668Z,4.97
2023-04-21T05:49:19.964Z,4.68
2023-04-21T05:51:47.225Z,4.85
2023-04-21T05:54:14.590Z,5.25
2023-04-21T05:56:41.759Z,4.82
2023-04-21T05:59:08.934Z,5.95
2023-04-21T06:01:36.262Z,5.55
2023-04-21T06:04:03.986Z,5.43
2023-04-21T06:06:32.025Z,4.85
2023-04-21T06:08:59.603Z,5.32
2023-04-21T06:11:27.006Z,5.13
2023-04-21T06:13:58.373Z,5.47
2023-04-21T06:16:26.961Z,5.35
2023-04-21T06:18:54.327Z,5.68
2023-04-21T06:21:21.608Z,5.53
2023-04-21T06:23:48.853Z,5.80
2023-04-21T06:26:16.139Z,5.35
2023-04-21T06:28:43.332Z,6.10
2023-04-21T06:31:15.215Z,5.63
2023-04-21T06:33:42.656Z,5.65
2023-04-21T06:36:09.887Z,5.70
2023-04-21T06:38:37.353Z,5.78
2023-04-21T06:41:04.853Z,5.65
2023-04-21T06:43:32.523Z,5.53
2023-04-21T06:45:59.735Z,5.60
2023-04-21T06:48:27.775Z,6.03
2023-04-21T06:50:55.070Z,4.70
2023-04-21T06:53:22.301Z,4.72
2023-04-21T06:55:49.705Z,3.67
2023-04-21T06:58:17.658Z,3.35
2023-04-21T07:00:46.428Z,3.05
2023-04-21T07:03:13.834Z,2.90
2023-04-21T07:05:41.335Z,2.88
2023-04-21T07:08:08.632Z,3.10
2023-04-21T07:10:35.981Z,2.55
2023-04-21T07:13:03.602Z,3.00
2023-04-21T07:15:30.840Z,2.95
2023-04-21T07:17:59.210Z,2.88
2023-04-21T07:20:26.873Z,3.17
2023-04-21T07:22:55.703Z,2.40
2023-04-21T07:25:22.865Z,2.45
2023-04-21T07:27:50.079Z,2.72
2023-04-21T07:30:17.390Z,2.42
2023-04-21T07:32:44.633Z,2.65
2023-04-21T07:35:11.840Z,2.50
2023-04-21T07:37:40.549Z,2.60
2023-04-21T07:40:12.477Z,2.60
2023-04-21T07:42:39.916Z,2.33
2023-04-21T07:45:07.884Z,2.80
2023-04-21T07:47:35.469Z,2.25
2023-04-21T07:50:02.955Z,2.28
2023-04-21T07:52:30.676Z,2.22
2023-04-21T07:54:57.855Z,2.60
2023-04-21T07:57:25.239Z,2.83
2023-04-21T07:59:52.418Z,2.58
2023-04-21T08:02:20.043Z,2.47
2023-04-21T08:04:47.579Z,2.25
2023-04-21T08:07:15.896Z,2.33
2023-04-21T08:09:43.247Z,2.13
2023-04-21T08:12:10.921Z,2.28
2023-04-21T08:14:38.056Z,2.38
2023-04-21T08:17:05.389Z,2.53
2023-04-21T08:19:32.690Z,2.72
2023-04-21T08:21:59.858Z,2.70
2023-04-21T08:24:27.050Z,2.50
2023-04-21T08:26:54.164Z,2.60
2023-04-21T08:29:21.550Z,2.33
2023-04-21T08:31:48.796Z,3.00
2023-04-21T08:34:16.148Z,2.85
2023-04-21T08:36:44.920Z,2.78
2023-04-21T08:39:13.143Z,2.80
2023-04-21T08:41:41.801Z,3.08
2023-04-21T08:44:11.584Z,2.92
2023-04-21T08:46:40.172Z,2.78
2023-04-21T08:49:11.718Z,3.03
2023-04-21T08:51:38.957Z,3.10
2023-04-21T08:54:06.592Z,2.95
2023-04-21T08:56:33.869Z,3.37
2023-04-21T08:59:01.028Z,3.55
2023-04-21T09:01:28.400Z,3.30
2023-04-21T09:04:17.884Z,3.63
2023-04-21T09:06:46.295Z,3.20
2023-04-21T09:09:13.802Z,3.78
2023-04-21T09:11:40.947Z,3.20
2023-04-21T09:14:09.190Z,4.03
2023-04-21T09:16:36.563Z,3.60
2023-04-21T09:19:03.748Z,3.88
2023-04-21T09:21:32.436Z,3.95
2023-04-21T09:24:06.770Z,3.47
2023-04-21T09:26:35.171Z,4.05
2023-04-21T09:29:07.756Z,3.70
2023-04-21T09:31:36.460Z,4.30
2023-04-21T09:34:18.364Z,3.72
2023-04-21T09:36:46.769Z,4.22
2023-04-21T09:42:02.231Z,4.40
2023-04-21T09:44:33.829Z,4.47
2023-04-21T09:47:14.209Z,4.90
2023-04-21T09:49:44.788Z,4.07
2023-04-21T09:52:19.097Z,3.85
2023-04-21T09:54:58.160Z,4.47
2023-04-21T09:57:27.126Z,4.95
2023-04-21T10:00:11.990Z,4.18
2023-04-21T10:02:50.144Z,4.78
2023-04-21T10:05:18.802Z,4.75
2023-04-21T10:07:48.051Z,4.15
2023-04-21T10:10:31.713Z,4.28
2023-04-21T10:12:59.427Z,4.47
2023-04-21T10:15:38.090Z,4.30
2023-04-21T10:18:22.444Z,5.78
2023-04-21T10:21:09.350Z,4.80
2023-04-21T10:23:54.373Z,5.03
2023-04-21T10:26:29.804Z,5.25
2023-04-21T10:29:07.902Z,5.72
2023-04-21T10:31:44.524Z,5.60
2023-04-21T10:34:38.511Z,5.47
2023-04-21T10:37:06.179Z,5.85
2023-04-21T10:39:54.874Z,5.68
2023-04-21T10:42:29.386Z,6.32
2023-04-21T10:47:45.991Z,6.20
2023-04-21T10:50:20.454Z,6.22
2023-04-21T10:55:30.045Z,6.75
2023-04-21T10:57:59.323Z,6.57
2023-04-21T11:00:26.591Z,6.72
2023-04-21T11:03:03.914Z,6.38
2023-04-21T11:05:40.677Z,6.35
2023-04-21T11:08:15.527Z,6.60
2023-04-21T11:10:55.772Z,6.90
2023-04-21T11:13:27.297Z,6.35
2023-04-21T11:16:21.055Z,6.68
2023-04-21T11:18:48.670Z,6.95
2023-04-21T11:21:21.432Z,6.40
2023-04-21T11:23:57.323Z,6.63
2023-04-21T11:26:42.615Z,7.25
2023-04-21T11:29:12.116Z,7.68
2023-04-21T11:31:44.673Z,6.70
2023-04-21T11:34:12.508Z,6.70
2023-04-21T11:36:47.243Z,6.95
2023-04-21T11:39:21.550Z,7.07
2023-04-21T11:41:52.110Z,7.20
2023-04-21T11:44:32.749Z,7.03
2023-04-21T11:47:00.230Z,6.40
2023-04-21T11:49:29.448Z,7.32
2023-04-21T11:51:56.994Z,7.68
2023-04-21T11:54:24.680Z,6.88
2023-04-21T11:56:54.432Z,7.60
2023-04-21T11:59:26.257Z,7.60
2023-04-21T12:01:55.025Z,7.30
2023-04-21T12:04:25.651Z,7.05
2023-04-21T12:07:02.792Z,7.20
2023-04-21T12:09:30.409Z,7.22
2023-04-21T12:12:01.715Z,8.05
2023-04-21T12:14:28.916Z,7.40
2023-04-21T12:16:58.713Z,7.03
2023-04-21T12:19:41.098Z,7.18
2023-04-21T12:22:18.658Z,7.25
2023-04-21T12:24:47.332Z,7.00
2023-04-21T12:27:15.060Z,7.60
2023-04-21T12:29:42.646Z,6.80
2023-04-21T12:32:10.411Z,7.50
2023-04-21T12:34:37.957Z,7.65
2023-04-21T12:37:05.996Z,7.53
2023-04-21T12:39:33.954Z,7.45
2023-04-21T12:42:01.747Z,6.88
2023-04-21T12:44:29.037Z,7.45
2023-04-21T12:46:57.328Z,7.40
2023-04-21T12:49:25.808Z,7.60
2023-04-21T12:51:53.068Z,8.15
2023-04-21T12:54:20.399Z,6.95
2023-04-21T12:56:47.602Z,7.43
2023-04-21T12:59:14.856Z,7.93
2023-04-21T13:01:44.795Z,7.25
2023-04-21T13:04:12.230Z,6.90
2023-04-21T13:06:40.085Z,7.03
2023-04-21T13:09:07.524Z,7.65
2023-04-21T13:11:34.888Z,7.45
2023-04-21T13:14:04.047Z,6.82
2023-04-21T13:16:31.953Z,7.93
2023-04-21T13:18:59.354Z,8.13
2023-04-21T13:21:26.767Z,7.30
2023-04-21T13:23:54.148Z,6.95
2023-04-21T13:26:21.856Z,6.65
2023-04-21T13:28:49.270Z,7.50
2023-04-21T13:31:16.672Z,7.63
2023-04-21T13:33:43.980Z,7.22
2023-04-21T13:36:12.995Z,7.03
2023-04-21T13:38:40.938Z,7.35
2023-04-21T13:41:08.661Z,7.57
2023-04-21T13:43:36.221Z,7.03
2023-04-21T13:46:03.627Z,7.25
2023-04-21T13:48:30.936Z,6.95
2023-04-21T13:51:01.358Z,7.13
2023-04-21T13:53:28.496Z,8.05
2023-04-21T13:55:59.438Z,7.43
2023-04-21T13:58:26.764Z,7.63
2023-04-21T14:00:53.949Z,7.13
2023-04-21T14:03:21.297Z,8.18
2023-04-21T14:05:48.870Z,7.32
2023-04-21T14:08:16.226Z,7.05
2023-04-21T14:10:43.618Z,7.35
2023-04-21T14:13:17.408Z,6.95
2023-04-21T14:15:55.760Z,6.00
2023-04-21T14:18:23.882Z,5.22
2023-04-21T14:20:51.058Z,6.82
2023-04-21T14:23:18.257Z,7.18
2023-04-21T14:25:45.474Z,6.10
2023-04-21T14:28:12.668Z,6.65
2023-04-21T14:30:40.055Z,5.70
2023-04-21T14:33:07.529Z,6.72
2023-04-21T14:35:37.608Z,5.97
2023-04-21T14:38:05.023Z,6.10
2023-04-21T14:40:32.372Z,6.88
2023-04-21T14:42:59.677Z,6.63
2023-04-21T14:45:27.089Z,6.57
2023-04-21T14:47:54.423Z,7.03
2023-04-21T14:50:22.144Z,7.18
2023-04-21T14:52:49.550Z,7.63
2023-04-21T14:55:17.648Z,6.93
2023-04-21T14:57:44.856Z,6.47
2023-04-21T15:00:13.224Z,6.72
2023-04-21T15:02:40.574Z,6.90
2023-04-21T15:05:08.900Z,6.85
2023-04-21T15:07:37.321Z,7.22
2023-04-21T15:12:33.937Z,7.20
2023-04-21T15:15:02.469Z,7.25
2023-04-21T15:17:29.714Z,7.97
2023-04-21T15:19:56.912Z,7.53
2023-04-21T15:22:24.150Z,7.25
2023-04-21T15:24:53.124Z,7.50
2023-04-21T15:27:21.779Z,14.98
2023-04-21T15:29:49.443Z,7.28
2023-04-21T15:32:16.686Z,7.63
2023-04-21T15:34:43.881Z,7.80
2023-04-21T15:37:11.103Z,7.78
2023-04-21T15:39:38.713Z,6.95
2023-04-21T15:42:06.358Z,7.45
2023-04-21T15:44:34.214Z,7.43
2023-04-21T15:49:29.635Z,8.05
2023-04-21T15:51:57.761Z,8.38
2023-04-21T15:54:24.950Z,8.15
2023-04-21T15:56:52.284Z,8.13
2023-04-21T15:59:19.518Z,7.70
2023-04-21T16:01:46.865Z,8.60
2023-04-21T16:04:14.877Z,7.65
2023-04-21T16:06:42.310Z,8.73
2023-04-21T16:09:10.886Z,8.27
2023-04-21T16:11:38.185Z,8.13
2023-04-21T16:14:05.826Z,8.27
2023-04-21T16:16:33.122Z,7.57
2023-04-21T16:19:00.429Z,8.00
2023-04-21T16:21:27.878Z,8.60
2023-04-21T16:23:55.226Z,8.63
2023-04-21T16:26:22.916Z,8.25
2023-04-21T16:28:54.141Z,8.23
2023-04-21T16:31:21.642Z,8.23
2023-04-21T16:33:49.447Z,8.85
2023-04-21T16:36:16.906Z,8.75
2023-04-21T16:38:44.153Z,8.57
2023-04-21T16:41:12.721Z,8.82
2023-04-21T16:43:39.998Z,8.27
2023-04-21T16:46:07.203Z,7.60
2023-04-21T16:48:34.635Z,7.60
2023-04-21T16:51:01.882Z,8.48
2023-04-21T16:53:29.120Z,9.30
2023-04-21T16:55:56.390Z,9.07
2023-04-21T16:58:24.512Z,8.55
2023-04-21T17:03:19.392Z,8.88
2023-04-21T17:05:46.817Z,8.63
2023-04-21T17:08:15.159Z,7.70
2023-04-21T17:10:42.339Z,10.15
2023-04-21T17:13:09.495Z,9.52
2023-04-21T17:15:36.676Z,10.88
2023-04-21T17:18:04.198Z,10.13
2023-04-21T17:20:31.427Z,10.73
2023-04-21T17:22:58.555Z,10.73
2023-04-21T17:25:26.118Z,11.27
2023-04-21T17:27:53.331Z,10.43
2023-04-21T17:30:22.042Z,12.25
2023-04-21T17:32:51.651Z,12.02
2023-04-21T17:35:25.000Z,12.07
2023-04-21T17:37:52.237Z,11.25
2023-04-21T17:40:19.567Z,11.70
2023-04-21T17:42:46.940Z,13.65
2023-04-21T17:45:14.155Z,11.75
2023-04-21T17:47:41.912Z,11.85
2023-04-21T17:50:12.724Z,13.07
2023-04-21T17:52:41.256Z,13.07
2023-04-21T17:55:08.904Z,12.35
2023-04-21T17:57:36.219Z,12.20
2023-04-21T18:00:07.210Z,12.13
2023-04-21T18:02:34.578Z,11.88
2023-04-21T18:05:04.052Z,10.50
2023-04-21T18:07:31.632Z,9.68
2023-04-21T18:09:58.873Z,8.30
2023-04-21T18:12:26.473Z,9.45
2023-04-21T18:14:53.771Z,8.15
2023-04-21T18:17:23.168Z,7.10
2023-04-21T18:19:50.398Z,7.05
2023-04-21T18:22:17.657Z,5.80
2023-04-21T18:24:45.209Z,5.40
2023-04-21T18:27:13.814Z,5.78
2023-04-21T18:29:40.969Z,5.07
2023-04-21T18:32:08.504Z,4.90
2023-04-21T18:34:36.367Z,4.68
2023-04-21T18:37:04.008Z,4.57
2023-04-21T18:39:31.366Z,4.60
2023-04-21T18:41:58.880Z,5.65
2023-04-21T18:44:26.347Z,4.88
2023-04-21T18:46:54.813Z,5.53
2023-04-21T18:49:22.115Z,5.18
2023-04-21T18:51:49.380Z,5.63
2023-04-21T18:54:16.720Z,5.57
2023-04-21T18:56:43.853Z,6.35
2023-04-21T18:59:11.147Z,5.35
2023-04-21T19:01:39.562Z,5.45
2023-04-21T19:04:09.874Z,5.40
2023-04-21T19:06:38.016Z,5.38
2023-04-21T19:09:05.233Z,5.97
2023-04-21T19:11:33.409Z,5.20
2023-04-21T19:14:00.715Z,5.00
2023-04-21T19:16:29.190Z,5.40
2023-04-21T19:18:56.487Z,5.25
2023-04-21T19:21:23.708Z,5.50
2023-04-21T19:23:50.899Z,6.05
2023-04-21T19:26:18.589Z,5.30
2023-04-21T19:28:45.787Z,5.55
2023-04-21T19:31:13.132Z,4.93
2023-04-21T19:33:40.562Z,6.65
2023-04-21T19:36:07.799Z,6.03
2023-04-21T19:38:35.257Z,6.38
2023-04-21T19:41:02.594Z,5.50
2023-04-21T19:43:29.774Z,5.72
2023-04-21T19:45:58.451Z,5.75
2023-04-21T19:48:26.605Z,5.75
2023-04-21T19:50:54.320Z,5.75
2023-04-21T19:53:21.701Z,5.85
2023-04-21T19:55:52.402Z,7.35
2023-04-21T19:58:38.344Z,6.85
2023-04-21T20:01:07.015Z,7.10
2023-04-21T20:03:34.601Z,7.97
2023-04-21T20:06:04.792Z,8.20
2023-04-21T20:08:32.313Z,8.55
2023-04-21T20:10:59.524Z,9.30
2023-04-21T20:13:27.072Z,8.45
2023-04-21T20:15:57.032Z,8.38
2023-04-21T20:18:24.720Z,8.40
2023-04-21T20:20:52.175Z,8.45
2023-04-21T20:23:19.651Z,7.97
2023-04-21T20:25:46.989Z,8.15
2023-04-21T20:28:15.246Z,8.38
2023-04-21T20:30:45.720Z,8.48
2023-04-21T20:33:13.233Z,6.88
2023-04-21T20:35:43.862Z,7.57
2023-04-21T20:38:11.167Z,7.60
2023-04-21T20:40:39.306Z,7.38
2023-04-21T20:43:06.496Z,6.88
2023-04-21T20:45:36.207Z,7.70
2023-04-21T20:48:05.021Z,7.93
2023-04-21T20:50:32.337Z,8.02
2023-04-21T20:53:00.116Z,7.88
2023-04-21T20:55:27.452Z,8.40
2023-04-21T20:57:54.611Z,7.20
2023-04-21T21:00:22.452Z,8.45
2023-04-21T21:02:49.959Z,7.50
2023-04-21T21:05:17.656Z,7.72
2023-04-21T21:07:45.345Z,7.80
2023-04-21T21:10:12.593Z,7.45
2023-04-21T21:12:39.782Z,8.00
2023-04-21T21:15:07.985Z,6.72
2023-04-21T21:17:35.351Z,7.63
2023-04-21T21:20:02.989Z,7.50
2023-04-21T21:22:30.641Z,7.90
2023-04-21T21:24:57.828Z,7.80
2023-04-21T21:27:25.343Z,7.50
2023-04-21T21:29:52.617Z,6.95
2023-04-21T21:32:19.945Z,7.13
2023-04-21T21:34:47.492Z,7.40
2023-04-21T21:37:14.864Z,7.00
2023-04-21T21:39:42.363Z,6.80
2023-04-21T21:42:09.541Z,7.80
2023-04-21T21:44:36.923Z,7.13
2023-04-21T21:47:04.358Z,6.90
2023-04-21T21:49:32.123Z,7.57
2023-04-21T21:51:59.331Z,6.60
2023-04-21T21:54:26.550Z,7.25
2023-04-21T21:56:53.789Z,6.90
2023-04-21T21:59:21.072Z,7.05
2023-04-21T22:01:48.903Z,6.72
2023-04-21T22:04:16.204Z,6.20
2023-04-21T22:06:45.261Z,6.25
2023-04-21T22:09:12.659Z,6.53
2023-04-21T22:11:39.918Z,5.90
2023-04-21T22:14:19.149Z,5.93
2023-04-21T22:16:50.533Z,6.00
2023-04-21T22:19:19.125Z,5.85
2023-04-21T22:24:14.065Z,6.20
2023-04-21T22:26:42.021Z,6.40
2023-04-21T22:29:09.187Z,6.60
2023-04-21T22:31:37.767Z,6.88
2023-04-21T22:34:05.354Z,6.78
2023-04-21T22:36:32.974Z,6.80
2023-04-21T22:39:00.462Z,6.88
2023-04-21T22:41:28.239Z,6.23
2023-04-21T22:43:55.604Z,6.90
2023-04-21T22:46:22.898Z,6.47
2023-04-21T22:48:51.245Z,6.60
2023-04-21T22:51:23.082Z,6.03
2023-04-21T22:53:50.517Z,7.07
2023-04-21T22:56:17.978Z,7.47
2023-04-21T22:58:45.465Z,6.22
2023-04-21T23:01:12.824Z,7.60
2023-04-21T23:03:40.362Z,7.55
2023-04-21T23:06:08.097Z,7.70
2023-04-21T23:08:35.304Z,7.65
2023-04-21T23:11:06.051Z,7.60
2023-04-21T23:13:33.394Z,7.35
2023-04-21T23:16:01.252Z,8.10
2023-04-21T23:18:28.685Z,8.40
2023-04-21T23:20:55.942Z,7.50
2023-04-21T23:23:23.441Z,6.50
2023-04-21T23:25:53.904Z,6.55
2023-04-21T23:28:23.755Z,7.03
2023-04-21T23:30:51.341Z,6.03
2023-04-21T23:33:18.842Z,5.75
2023-04-21T23:35:46.302Z,6.43
2023-04-21T23:38:14.262Z,5.93
2023-04-21T23:40:41.758Z,5.22
2023-04-21T23:43:09.010Z,5.63
2023-04-21T23:45:36.485Z,6.32
2023-04-21T23:48:03.763Z,5.72
2023-04-21T23:50:31.143Z,5.70
2023-04-21T23:53:01.604Z,6.40
2023-04-21T23:55:28.999Z,6.07
2023-04-21T23:57:56.168Z,6.03
